PA61 weather

Kunda Airport
Collegeville, Pennsylvania, United States

Public forecast

Using degrees Fahrenheit for public forecast. Weather courtesy of forecast.io.

METAR (pilot weather report)

Closest report is Heritage Field, 6.6 nm (12.2 km) NW. Retrieved 2019/09/22 06:54 UTC (22 minutes ago):

KPTW 220654Z AUTO 00000KT 7SM CLR 13/13 A3020 RMK AO2 SLP223 T01330133

TAF (pilot weather forecast)

Closest forecast is Philadelphia International Airport, 20.1 nm (37.3 km) SSE. Retrieved 2019/09/22 06:30 UTC (46 minutes ago):

TAF KPHL 220521Z 2206/2312 VRB03KT P6SM SKC TEMPO 2209/2212 5SM BR FM221200 VRB03KT P6SM FEW060 FM221400 19004KT P6SM FEW050 FM221600 19007KT P6SM FEW050 FM222000 20008KT P6SM FEW250